Home   Weather   Germany   Norderstedt   Past weeks
Flag for Germany

Past Weather in Norderstedt, Schleswig-Holstein, Germany — Yesterday and Last 2 Weeks

Currently: 66 °F. Sunny. (Weather station: Hamburg-Fuhlsbuettel, Germany). See more current weather

Past Weather in Norderstedt — Graph

°F

Norderstedt Temperature Yesterday

Maximum temperature yesterday: 73 °F (at 4:20 pm)
Minimum temperature yesterday: 46 °F (at 5:20 am)
Average temperature yesterday: 62 °F

High & Low Weather Summary for the Past Weeks

 TemperatureHumidityPressure
High97 °F (Aug 4, 2:50 pm)100% (Jul 25, 6:50 pm)30.33 "Hg (Jul 25, 6:50 pm)
Low46 °F (Jul 28, 3:20 am)25% (Aug 4, 2:50 pm)29.68 "Hg (Jul 25, 1:50 pm)
Average66 °F69%30.03 "Hg
* Reported Jul 24 9:20 am — Aug 8 9:20 am, Norderstedt. Weather by CustomWeather, © 2022

Note: Actual official high and low records may vary slightly from our data, if they occured in-between our weather recording intervals... More about our weather records

Norderstedt Weather History for the Previous 24 Hours

Scroll right to see more
 ConditionsComfort  
Time TempWeatherWind HumidityBarometerVisibility
9:20 am
Mon, Aug 8
66 °FSunny.2 mph64%30.27 "Hg10 mi
8:50 am64 °FPassing clouds.5 mph68%30.27 "HgN/A
8:20 am61 °FSunny.5 mph77%30.27 "Hg10 mi
7:50 am59 °FScattered clouds.3 mph77%30.27 "HgN/A
7:20 am57 °FSunny.3 mph88%30.27 "Hg10 mi
6:50 am54 °FSunny.3 mph94%30.27 "Hg10 mi
6:20 am52 °FSunny.2 mph94%30.27 "Hg10 mi
5:50 am50 °FSunny.5 mph100%30.27 "Hg10 mi
5:20 am50 °FClear.3 mph100%30.24 "Hg10 mi
4:50 am50 °FClear.2 mph100%30.24 "Hg10 mi
4:20 am52 °FClear.3 mph94%30.24 "Hg10 mi
3:50 am52 °FClear.1 mph94%30.24 "Hg10 mi
3:20 am52 °FClear.2 mph94%30.24 "Hg10 mi
2:50 am52 °FClear.1 mph94%30.24 "Hg10 mi
1:20 am52 °FClear.2 mph94%30.24 "Hg10 mi
12:50 am54 °FClear.2 mph94%30.24 "Hg10 mi
12:20 am55 °FClear.1 mph88%30.24 "Hg10 mi
11:20 pm
Sun, Aug 7
57 °FClear.1 mph88%30.24 "Hg10 mi
10:50 pm59 °FClear.2 mph77%30.24 "Hg10 mi
10:20 pm59 °FClear.3 mph77%30.24 "Hg10 mi
9:50 pm61 °FClear.5 mph72%30.24 "Hg10 mi
9:20 pm63 °FClear.5 mph64%30.24 "Hg10 mi
8:50 pm64 °FSunny.5 mph60%30.21 "Hg10 mi
8:20 pm66 °FSunny.6 mph56%30.21 "Hg10 mi
7:50 pm68 °FSunny.8 mph49%30.21 "Hg10 mi
7:20 pm70 °FSunny.7 mph50%30.21 "Hg10 mi
6:50 pm72 °FPassing clouds.6 mph44%30.21 "HgN/A
6:20 pm72 °FPassing clouds.5 mph44%30.21 "HgN/A
5:50 pm72 °FPassing clouds.7 mph44%30.21 "HgN/A
5:20 pm70 °FSunny.8 mph46%30.24 "Hg10 mi
4:50 pm70 °FPassing clouds.6 mph46%30.24 "HgN/A
4:20 pm73 °FSunny.6 mph38%30.24 "Hg10 mi
3:50 pm72 °FPassing clouds.8 mph44%30.24 "HgN/A
3:20 pm72 °FPassing clouds.8 mph44%30.24 "HgN/A
2:50 pm70 °FPassing clouds.8 mph46%30.24 "HgN/A
2:20 pm68 °FPassing clouds.7 mph49%30.27 "HgN/A
1:50 pm70 °FPassing clouds.8 mph46%30.27 "HgN/A
1:20 pm70 °FPassing clouds.9 mph46%30.27 "HgN/A
12:20 pm68 °FScattered clouds.9 mph46%30.27 "HgN/A
11:50 am68 °FPassing clouds.9 mph49%30.30 "HgN/A
11:20 am66 °FPassing clouds.8 mph52%30.30 "HgN/A
10:50 am66 °FPassing clouds.8 mph52%30.30 "HgN/A
10:20 am64 °FPassing clouds.8 mph56%30.30 "HgN/A
Weather by CustomWeather, © 2022

See weather overview